Parvin, Pennsylvania
Current Conditions -  °F | °C
As of 6:53 AM on Wednesday 26 Nov 2014 (Local Time) from KUNV Reporting Station
Overcast Overcast  
Wind Chill: 26°   Ceiling: 10000
Heat Index: 32°   Visibility: 10mi
Dew Point: 27°   Wind: 7mph
Humidity: 80%   Direction: 40°NE
Pressure: 30.07"   Gusts: NA
Location:  41.0898°N, 77.4915°W
Report Text: KUNV 261153Z 04006KT 10SM OVC100 00/M03 A3007
Loading
Personal Weather Stations






























Interactive Weather Map New forecast layout! Learn more

10-Day Weather Forecast

Advertisements
Track Severe Weather on mobile